createdAt,value
2022-07-28T00:00:01.272Z,66.47
2022-07-28T00:01:01.248Z,66.07
2022-07-28T00:02:01.332Z,66.58
2022-07-28T00:03:01.306Z,68.40
2022-07-28T00:04:01.219Z,67.39
2022-07-28T00:05:01.230Z,68.50
2022-07-28T00:06:01.195Z,68.30
2022-07-28T00:07:01.187Z,69.21
2022-07-28T00:08:01.175Z,68.60
2022-07-28T00:09:01.172Z,68.40
2022-07-28T00:10:01.275Z,67.89
2022-07-28T00:11:01.157Z,68.30
2022-07-28T00:12:01.130Z,68.40
2022-07-28T00:13:01.118Z,67.18
2022-07-28T00:14:01.102Z,68.19
2022-07-28T00:15:01.108Z,68.26
2022-07-28T00:16:01.158Z,68.19
2022-07-28T00:17:01.067Z,68.06
2022-07-28T00:18:01.083Z,67.99
2022-07-28T00:19:01.046Z,67.66
2022-07-28T00:20:01.034Z,68.37
2022-07-28T00:21:01.037Z,68.30
2022-07-28T00:22:01.011Z,68.06
2022-07-28T00:23:01.002Z,67.39
2022-07-28T00:24:00.989Z,67.55
2022-07-28T00:25:00.991Z,67.49
2022-07-28T00:26:00.991Z,66.85
2022-07-28T00:27:00.964Z,67.15
2022-07-28T00:28:00.955Z,67.35
2022-07-28T00:29:00.939Z,67.35
2022-07-28T00:30:00.926Z,67.59
2022-07-28T00:31:05.619Z,67.39
2022-07-28T00:32:01.961Z,67.08
2022-07-28T00:33:00.898Z,66.85
2022-07-28T00:34:00.894Z,67.18
2022-07-28T00:35:00.877Z,67.29
2022-07-28T00:36:00.871Z,67.35
2022-07-28T00:37:00.872Z,67.49
2022-07-28T00:38:01.842Z,66.88
2022-07-28T00:39:00.834Z,67.46
2022-07-28T00:40:00.814Z,66.98
2022-07-28T00:41:00.804Z,67.76
2022-07-28T00:42:00.815Z,67.18
2022-07-28T00:43:00.792Z,67.46
2022-07-28T00:44:00.772Z,67.46
2022-07-28T00:45:00.761Z,68.30
2022-07-28T00:46:00.757Z,67.46
2022-07-28T00:47:00.814Z,67.18
2022-07-28T00:48:00.735Z,67.59
2022-07-28T00:49:00.783Z,67.86
2022-07-28T00:50:00.714Z,67.29
2022-07-28T00:51:00.717Z,67.99
2022-07-28T00:52:00.702Z,68.47
2022-07-28T00:53:00.677Z,68.50
2022-07-28T00:54:00.670Z,68.40
2022-07-28T00:55:00.654Z,67.49
2022-07-28T00:56:05.919Z,68.50
2022-07-28T00:57:01.649Z,68.10
2022-07-28T00:58:00.624Z,68.30
2022-07-28T00:59:00.603Z,68.30
2022-07-28T01:00:00.600Z,68.19
2022-07-28T01:01:00.645Z,68.60
2022-07-28T01:02:00.782Z,68.30
2022-07-28T01:03:00.648Z,68.40
2022-07-28T01:04:00.546Z,68.19
2022-07-28T01:05:00.543Z,68.10
2022-07-28T01:06:00.527Z,68.40
2022-07-28T01:07:00.539Z,68.19
2022-07-28T01:08:00.514Z,68.40
2022-07-28T01:09:00.492Z,68.19
2022-07-28T01:10:00.493Z,68.63
2022-07-28T01:11:00.469Z,68.43
2022-07-28T01:12:00.481Z,68.30
2022-07-28T01:13:00.449Z,68.43
2022-07-28T01:14:00.436Z,69.04
2022-07-28T01:15:00.432Z,69.14
2022-07-28T01:16:00.492Z,69.41
2022-07-28T01:17:00.426Z,68.84
2022-07-28T01:18:00.392Z,68.53
2022-07-28T01:19:00.390Z,69.24
2022-07-28T01:20:00.387Z,69.65
2022-07-28T01:21:00.369Z,68.84
2022-07-28T01:22:00.362Z,69.34
2022-07-28T01:23:00.338Z,69.44
2022-07-28T01:24:00.332Z,69.74
2022-07-28T01:25:00.323Z,69.74
2022-07-28T01:26:00.305Z,69.74
2022-07-28T01:27:00.315Z,69.85
2022-07-28T01:28:00.283Z,69.54
2022-07-28T01:29:00.279Z,69.54
2022-07-28T01:30:00.265Z,69.65
2022-07-28T01:31:00.316Z,69.54
2022-07-28T01:32:00.257Z,69.34
2022-07-28T01:33:00.231Z,69.74
2022-07-28T01:34:00.220Z,69.48
2022-07-28T01:35:00.217Z,70.29
2022-07-28T01:36:00.199Z,70.49
2022-07-28T01:37:00.189Z,70.05
2022-07-28T01:39:21.477Z,69.74
2022-07-28T01:40:09.955Z,70.96
2022-07-28T01:41:09.938Z,70.39
2022-07-28T01:42:09.938Z,70.49
2022-07-28T01:43:13.088Z,69.98
2022-07-28T01:44:09.956Z,70.49
2022-07-28T01:45:09.894Z,70.59
2022-07-28T01:46:09.928Z,70.69
2022-07-28T01:47:09.879Z,70.59
2022-07-28T01:48:09.860Z,70.89
2022-07-28T01:49:09.926Z,70.08
2022-07-28T01:50:09.849Z,71.09
2022-07-28T01:51:09.833Z,71.20
2022-07-28T01:52:09.829Z,71.00
2022-07-28T01:53:09.811Z,70.89
2022-07-28T01:54:09.830Z,71.20
2022-07-28T01:55:09.790Z,71.09
2022-07-28T01:56:09.777Z,70.69
2022-07-28T01:57:09.772Z,70.89
2022-07-28T01:58:09.761Z,70.79
2022-07-28T01:59:09.766Z,70.79
2022-07-28T02:00:09.736Z,71.20
2022-07-28T02:01:09.804Z,71.23
2022-07-28T02:02:09.855Z,71.23
2022-07-28T02:03:09.700Z,71.50
2022-07-28T02:04:09.814Z,71.20
2022-07-28T02:05:09.741Z,71.33
2022-07-28T02:06:09.665Z,71.53
2022-07-28T02:07:09.673Z,71.13
2022-07-28T02:08:09.648Z,71.09
2022-07-28T02:09:09.646Z,71.44
2022-07-28T02:10:09.626Z,71.70
2022-07-28T02:11:10.019Z,71.70
2022-07-28T02:12:09.602Z,71.91
2022-07-28T02:13:09.591Z,71.84
2022-07-28T02:14:09.596Z,71.73
2022-07-28T02:15:09.565Z,71.73
2022-07-28T02:16:09.608Z,71.44
2022-07-28T02:17:09.541Z,71.64
2022-07-28T02:18:09.541Z,71.84
2022-07-28T02:19:09.541Z,71.53
2022-07-28T02:20:09.508Z,71.64
2022-07-28T02:21:09.503Z,71.64
2022-07-28T02:22:09.492Z,71.64
2022-07-28T02:23:09.485Z,71.73
2022-07-28T02:24:09.473Z,71.84
2022-07-28T02:25:09.453Z,71.64
2022-07-28T02:26:09.443Z,71.73
2022-07-28T02:27:09.435Z,71.73
2022-07-28T02:28:09.415Z,71.53
2022-07-28T02:29:22.286Z,71.73
2022-07-28T02:30:10.391Z,71.53
2022-07-28T02:31:09.477Z,71.44
2022-07-28T02:32:26.830Z,71.64
2022-07-28T02:33:10.363Z,71.94
2022-07-28T02:34:09.363Z,71.33
2022-07-28T02:35:09.629Z,71.44
2022-07-28T02:36:09.324Z,71.73
2022-07-28T02:37:09.315Z,71.44
2022-07-28T02:38:09.309Z,71.64
2022-07-28T02:39:09.325Z,71.73
2022-07-28T02:40:09.320Z,71.94
2022-07-28T02:41:09.290Z,72.04
2022-07-28T02:42:09.267Z,72.34
2022-07-28T02:43:09.248Z,71.94
2022-07-28T02:44:09.277Z,72.24
2022-07-28T02:45:09.235Z,72.14
2022-07-28T02:46:09.320Z,71.94
2022-07-28T02:47:09.202Z,72.55
2022-07-28T02:48:09.197Z,72.58
2022-07-28T02:49:09.281Z,71.84
2022-07-28T02:50:09.169Z,72.45
2022-07-28T02:51:09.159Z,72.17
2022-07-28T02:52:09.156Z,72.48
2022-07-28T02:53:14.852Z,72.48
2022-07-28T02:54:10.324Z,72.17
2022-07-28T02:55:09.124Z,72.68
2022-07-28T02:56:09.121Z,72.38
2022-07-28T02:57:09.091Z,72.38
2022-07-28T02:58:09.077Z,72.58
2022-07-28T02:59:09.075Z,73.19
2022-07-28T03:00:09.078Z,73.39
2022-07-28T03:01:09.111Z,72.89
2022-07-28T03:02:09.038Z,72.68
2022-07-28T03:03:09.030Z,72.38
2022-07-28T03:04:09.009Z,72.82
2022-07-28T03:05:11.420Z,72.58
2022-07-28T03:06:08.985Z,72.08
2022-07-28T03:07:08.993Z,72.68
2022-07-28T03:08:08.974Z,73.29
2022-07-28T03:09:08.965Z,73.60
2022-07-28T03:10:08.972Z,73.80
2022-07-28T03:11:08.939Z,73.53
2022-07-28T03:12:08.919Z,73.33
2022-07-28T03:13:08.916Z,73.53
2022-07-28T03:14:08.897Z,73.53
2022-07-28T03:15:08.917Z,73.83
2022-07-28T03:16:08.882Z,74.14
2022-07-28T03:17:09.009Z,74.14
2022-07-28T03:18:08.866Z,74.17
2022-07-28T03:19:08.849Z,73.93
2022-07-28T03:20:08.877Z,73.83
2022-07-28T03:21:08.822Z,74.04
2022-07-28T03:22:10.570Z,73.43
2022-07-28T03:23:08.802Z,73.26
2022-07-28T03:24:08.799Z,74.14
2022-07-28T03:25:08.779Z,74.07
2022-07-28T03:26:08.779Z,74.68
2022-07-28T03:27:08.749Z,74.78
2022-07-28T03:28:08.740Z,74.98
2022-07-28T03:29:08.729Z,74.98
2022-07-28T03:30:08.728Z,74.58
2022-07-28T03:31:08.794Z,74.58
2022-07-28T03:32:08.694Z,74.98
2022-07-28T03:33:08.682Z,74.98
2022-07-28T03:34:08.680Z,74.98
2022-07-28T03:35:08.661Z,75.22
2022-07-28T03:36:08.685Z,75.12
2022-07-28T03:37:08.655Z,75.02
2022-07-28T03:38:08.627Z,75.22
2022-07-28T03:39:08.629Z,75.52
2022-07-28T03:40:08.606Z,75.52
2022-07-28T03:41:08.605Z,75.63
2022-07-28T03:42:08.587Z,75.02
2022-07-28T03:43:08.570Z,75.26
2022-07-28T03:44:08.559Z,75.32
2022-07-28T03:45:08.548Z,76.03
2022-07-28T03:46:12.997Z,75.83
2022-07-28T03:47:08.524Z,75.93
2022-07-28T03:48:08.523Z,76.75
2022-07-28T03:49:08.625Z,75.87
2022-07-28T03:50:08.500Z,76.64
2022-07-28T03:51:08.502Z,76.44
2022-07-28T03:52:08.468Z,76.48
2022-07-28T03:53:08.463Z,76.85
2022-07-28T03:54:08.464Z,76.88
2022-07-28T03:55:08.442Z,76.68
2022-07-28T03:56:08.436Z,77.15
2022-07-28T03:57:08.412Z,77.29
2022-07-28T03:58:08.410Z,77.36
2022-07-28T03:59:08.395Z,77.09
2022-07-28T04:00:09.907Z,77.80
2022-07-28T04:01:08.457Z,78.00
2022-07-28T04:02:08.468Z,78.20
2022-07-28T04:03:35.693Z,78.30
2022-07-28T04:04:09.337Z,78.10
2022-07-28T04:05:08.333Z,78.41
2022-07-28T04:06:08.328Z,78.30
2022-07-28T04:07:08.308Z,78.20
2022-07-28T04:08:08.297Z,78.51
2022-07-28T04:09:08.279Z,79.05
2022-07-28T04:10:08.269Z,79.02
2022-07-28T04:11:08.280Z,79.16
2022-07-28T04:12:08.254Z,79.02
2022-07-28T04:13:08.232Z,78.71
2022-07-28T04:14:10.989Z,78.91
2022-07-28T04:15:09.222Z,78.81
2022-07-28T04:16:08.207Z,78.71
2022-07-28T04:17:08.274Z,79.12
2022-07-28T04:18:08.187Z,78.91
2022-07-28T04:19:08.166Z,79.22
2022-07-28T04:20:08.158Z,79.32
2022-07-28T04:21:08.155Z,79.02
2022-07-28T04:22:08.152Z,79.22
2022-07-28T04:23:08.125Z,79.52
2022-07-28T04:24:08.117Z,79.52
2022-07-28T04:25:08.101Z,79.32
2022-07-28T04:26:08.096Z,79.63
2022-07-28T04:27:08.089Z,79.22
2022-07-28T04:28:08.073Z,79.52
2022-07-28T04:29:08.055Z,79.02
2022-07-28T04:30:08.053Z,79.42
2022-07-28T04:31:08.104Z,79.32
2022-07-28T04:32:08.035Z,79.42
2022-07-28T04:34:39.337Z,79.12
2022-07-28T04:35:17.894Z,79.52
2022-07-28T04:37:27.622Z,79.83
2022-07-28T04:38:28.596Z,79.83
2022-07-28T04:39:27.587Z,78.91
2022-07-28T04:40:27.579Z,79.12
2022-07-28T04:41:27.566Z,79.12
2022-07-28T04:42:27.564Z,79.52
2022-07-28T04:43:27.541Z,79.32
2022-07-28T04:44:27.540Z,79.32
2022-07-28T04:45:27.541Z,79.32
2022-07-28T04:46:27.546Z,79.49
2022-07-28T04:47:27.509Z,79.22
2022-07-28T04:48:27.489Z,79.72
2022-07-28T04:49:27.481Z,79.72
2022-07-28T04:50:27.465Z,79.79
2022-07-28T04:51:27.469Z,79.49
2022-07-28T04:52:27.466Z,79.38
2022-07-28T04:53:27.436Z,79.49
2022-07-28T04:54:27.422Z,79.69
2022-07-28T04:55:27.421Z,79.49
2022-07-28T04:56:27.407Z,79.45
2022-07-28T04:57:27.413Z,79.25
2022-07-28T04:58:27.385Z,78.64
2022-07-28T04:59:27.372Z,77.79
2022-07-28T05:00:27.357Z,77.79
2022-07-28T05:01:27.420Z,78.19
2022-07-28T05:02:27.333Z,78.40
2022-07-28T05:03:28.753Z,79.00
2022-07-28T05:04:27.377Z,79.31
2022-07-28T05:05:27.303Z,78.91
2022-07-28T05:06:27.283Z,77.18
2022-07-28T05:07:27.273Z,77.04
2022-07-28T05:08:27.274Z,77.34
2022-07-28T05:09:27.259Z,76.94
2022-07-28T05:10:27.247Z,75.93
2022-07-28T05:11:27.240Z,75.69
2022-07-28T05:12:27.226Z,75.08
2022-07-28T05:13:33.373Z,73.76
2022-07-28T05:14:28.203Z,74.27
2022-07-28T05:15:27.192Z,74.13
2022-07-28T05:16:27.228Z,74.88
2022-07-28T05:17:27.168Z,74.77
2022-07-28T05:18:27.164Z,74.33
2022-07-28T05:19:27.139Z,74.44
2022-07-28T05:20:27.133Z,73.12
2022-07-28T05:21:27.117Z,73.12
2022-07-28T05:22:27.111Z,73.22
2022-07-28T05:23:27.116Z,72.72
2022-07-28T05:24:27.091Z,72.11
2022-07-28T05:25:27.070Z,72.52
2022-07-28T05:26:27.066Z,71.88
2022-07-28T05:27:27.048Z,72.31
2022-07-28T05:28:27.037Z,72.38
2022-07-28T05:29:37.645Z,72.28
2022-07-28T05:30:28.023Z,72.48
2022-07-28T05:31:27.050Z,72.17
2022-07-28T05:32:27.029Z,72.08
2022-07-28T05:33:30.199Z,72.38
2022-07-28T05:34:27.986Z,72.38
2022-07-28T05:35:26.962Z,72.44
2022-07-28T05:36:26.953Z,71.94
2022-07-28T05:37:26.942Z,72.08
2022-07-28T05:38:26.924Z,72.58
2022-07-28T05:39:26.920Z,71.97
2022-07-28T05:40:26.919Z,72.24
2022-07-28T05:41:26.897Z,71.94
2022-07-28T05:42:26.879Z,72.44
2022-07-28T05:43:26.875Z,72.38
2022-07-28T05:44:26.856Z,72.14
2022-07-28T05:45:26.907Z,72.44
2022-07-28T05:46:26.834Z,72.34
2022-07-28T05:47:26.835Z,72.04
2022-07-28T05:48:26.816Z,72.61
2022-07-28T05:49:26.850Z,72.14
2022-07-28T05:50:26.803Z,72.04
2022-07-28T05:51:26.781Z,71.91
2022-07-28T05:52:26.774Z,72.75
2022-07-28T05:53:26.759Z,72.41
2022-07-28T05:54:26.744Z,72.01
2022-07-28T05:55:26.755Z,72.31
2022-07-28T05:56:26.725Z,72.31
2022-07-28T05:57:26.729Z,71.91
2022-07-28T05:58:26.700Z,71.87
2022-07-28T05:59:26.694Z,71.47
2022-07-28T06:00:26.676Z,71.57
2022-07-28T06:01:26.748Z,71.26
2022-07-28T06:02:26.716Z,70.86
2022-07-28T06:03:26.648Z,71.33
2022-07-28T06:04:28.286Z,71.91
2022-07-28T06:05:26.627Z,71.26
2022-07-28T06:06:26.622Z,70.76
2022-07-28T06:07:42.665Z,68.84
2022-07-28T06:08:27.588Z,69.55
2022-07-28T06:09:26.574Z,69.31
2022-07-28T06:10:26.564Z,69.48
2022-07-28T06:11:26.571Z,69.59
2022-07-28T06:12:26.550Z,69.55
2022-07-28T06:13:26.529Z,69.35
2022-07-28T06:14:26.526Z,68.68
2022-07-28T06:15:26.524Z,67.34
2022-07-28T06:16:26.590Z,67.31
2022-07-28T06:17:26.492Z,66.50
2022-07-28T06:18:26.475Z,64.83
2022-07-28T06:19:26.471Z,64.30
2022-07-28T06:20:26.532Z,62.79
2022-07-28T06:21:26.464Z,62.79
2022-07-28T06:22:26.438Z,62.06
2022-07-28T06:23:26.424Z,62.29
2022-07-28T06:24:26.407Z,61.58
2022-07-28T06:25:26.404Z,61.18
2022-07-28T06:26:26.401Z,61.58
2022-07-28T06:27:26.394Z,61.88
2022-07-28T06:28:26.363Z,61.99
2022-07-28T06:29:26.354Z,62.29
2022-07-28T06:30:26.446Z,61.49
2022-07-28T06:31:26.421Z,60.98
2022-07-28T06:32:26.332Z,61.18
2022-07-28T06:33:26.320Z,60.58
2022-07-28T06:34:26.312Z,60.18
2022-07-28T06:35:26.302Z,60.38
2022-07-28T06:36:26.290Z,60.78
2022-07-28T06:37:26.278Z,61.08
2022-07-28T06:38:26.257Z,61.08
2022-07-28T06:39:26.240Z,61.11
2022-07-28T06:40:26.312Z,61.01
2022-07-28T06:41:26.230Z,61.31
2022-07-28T06:42:26.208Z,61.24
2022-07-28T06:43:26.219Z,61.34
2022-07-28T06:44:42.616Z,61.77
2022-07-28T06:45:27.185Z,62.38
2022-07-28T06:46:26.231Z,62.55
2022-07-28T06:47:26.192Z,62.85
2022-07-28T06:48:29.242Z,62.65
2022-07-28T06:49:26.185Z,62.22
2022-07-28T06:50:27.117Z,61.38
2022-07-28T06:51:26.122Z,60.12
2022-07-28T06:52:26.104Z,59.77
2022-07-28T06:53:26.099Z,57.90
2022-07-28T06:54:26.080Z,56.95
2022-07-28T06:55:26.076Z,56.79
2022-07-28T06:56:27.066Z,55.34
2022-07-28T06:57:28.080Z,55.02
2022-07-28T06:58:27.063Z,55.06
2022-07-28T06:59:26.051Z,53.31
2022-07-28T07:00:26.046Z,50.10
2022-07-28T07:01:26.057Z,50.90
2022-07-28T07:02:28.143Z,51.07
2022-07-28T07:03:25.987Z,50.65
2022-07-28T07:04:26.091Z,50.65
2022-07-28T07:05:25.964Z,50.55
2022-07-28T07:06:25.950Z,50.95
2022-07-28T07:07:25.938Z,51.27
2022-07-28T07:08:25.943Z,50.50
2022-07-28T07:09:25.915Z,50.40
2022-07-28T07:10:26.023Z,50.30
2022-07-28T07:11:25.886Z,50.52
2022-07-28T07:12:25.884Z,51.22
2022-07-28T07:13:25.884Z,51.15
2022-07-28T07:14:25.855Z,51.17
2022-07-28T07:15:25.849Z,51.59
2022-07-28T07:16:25.877Z,52.62
2022-07-28T07:17:25.820Z,52.94
2022-07-28T07:18:25.814Z,53.57
2022-07-28T07:19:25.810Z,53.47
2022-07-28T07:20:25.859Z,53.22
2022-07-28T07:21:25.782Z,53.42
2022-07-28T07:22:25.806Z,54.64
2022-07-28T07:23:25.756Z,55.74
2022-07-28T07:24:25.770Z,55.32
2022-07-28T07:25:25.753Z,53.92
2022-07-28T07:26:25.723Z,53.30
2022-07-28T07:27:25.712Z,53.82
2022-07-28T07:28:25.711Z,54.92
2022-07-28T07:29:25.691Z,55.52
2022-07-28T07:30:26.702Z,56.82
2022-07-28T07:31:25.716Z,57.02
2022-07-28T07:32:25.658Z,55.79
2022-07-28T07:33:25.648Z,54.92
2022-07-28T07:34:25.642Z,54.60
2022-07-28T07:35:25.645Z,54.19
2022-07-28T07:36:25.621Z,53.82
2022-07-28T07:37:25.611Z,54.39
2022-07-28T07:38:29.156Z,53.82
2022-07-28T07:39:25.590Z,53.72
2022-07-28T07:40:25.603Z,53.85
2022-07-28T07:41:25.566Z,54.17
2022-07-28T07:42:25.547Z,54.67
2022-07-28T07:43:25.552Z,55.40
2022-07-28T07:44:25.525Z,55.70
2022-07-28T07:45:25.519Z,56.83
2022-07-28T07:46:25.552Z,57.20
2022-07-28T07:47:25.494Z,57.20
2022-07-28T07:48:25.481Z,57.17
2022-07-28T07:49:25.560Z,56.77
2022-07-28T07:50:26.456Z,57.07
2022-07-28T07:51:25.459Z,56.77
2022-07-28T07:52:25.444Z,57.17
2022-07-28T07:53:25.432Z,56.85
2022-07-28T07:54:25.423Z,55.62
2022-07-28T07:55:25.418Z,55.42
2022-07-28T07:56:25.405Z,53.62
2022-07-28T07:57:25.387Z,53.92
2022-07-28T07:58:25.375Z,55.12
2022-07-28T07:59:25.368Z,55.32
2022-07-28T08:00:29.116Z,54.82
2022-07-28T08:01:25.397Z,55.02
2022-07-28T08:02:25.335Z,54.99
2022-07-28T08:03:26.414Z,54.17
2022-07-28T08:04:25.545Z,53.94
2022-07-28T08:05:35.077Z,53.64
2022-07-28T08:06:26.888Z,52.52
2022-07-28T08:07:25.282Z,52.99
2022-07-28T08:08:25.268Z,52.87
2022-07-28T08:09:25.309Z,52.07
2022-07-28T08:10:25.249Z,51.97
2022-07-28T08:11:25.222Z,52.07
2022-07-28T08:12:25.682Z,53.66
2022-07-28T08:13:25.200Z,52.44
2022-07-28T08:14:25.199Z,53.04
2022-07-28T08:15:25.181Z,51.35
2022-07-28T08:16:25.292Z,51.27
2022-07-28T08:17:26.243Z,51.87
2022-07-28T08:20:44.908Z,53.77
2022-07-28T08:21:44.882Z,53.36
2022-07-28T08:22:44.877Z,52.97
2022-07-28T08:23:44.867Z,52.67
2022-07-28T08:24:44.846Z,52.17
2022-07-28T08:25:44.839Z,52.55
2022-07-28T08:26:44.823Z,51.40
2022-07-28T08:27:44.809Z,49.55
2022-07-28T08:28:44.792Z,48.79
2022-07-28T08:32:04.381Z,47.31
2022-07-28T08:33:04.367Z,46.24
2022-07-28T08:34:04.369Z,46.86
2022-07-28T08:35:31.546Z,47.77
2022-07-28T08:36:05.338Z,47.80
2022-07-28T08:37:04.328Z,47.72
2022-07-28T08:38:04.319Z,48.24
2022-07-28T08:39:04.327Z,49.13
2022-07-28T08:40:04.301Z,49.13
2022-07-28T08:41:04.291Z,48.44
2022-07-28T08:42:04.287Z,48.41
2022-07-28T08:43:04.292Z,48.29
2022-07-28T08:44:04.257Z,48.10
2022-07-28T08:45:04.256Z,47.57
2022-07-28T08:46:04.295Z,47.57
2022-07-28T08:47:04.285Z,47.97
2022-07-28T08:48:09.227Z,47.47
2022-07-28T08:49:05.268Z,48.19
2022-07-28T08:50:04.205Z,48.69
2022-07-28T08:51:04.179Z,48.10
2022-07-28T08:52:04.175Z,48.96
2022-07-28T08:53:04.159Z,48.47
2022-07-28T08:54:04.151Z,49.74
2022-07-28T08:55:04.153Z,48.14
2022-07-28T08:56:04.118Z,47.85
2022-07-28T08:57:04.106Z,48.94
2022-07-28T08:58:04.101Z,47.63
2022-07-28T08:59:04.099Z,47.53
2022-07-28T09:00:04.082Z,47.43
2022-07-28T09:01:04.085Z,46.51
2022-07-28T09:02:04.172Z,45.90
2022-07-28T09:03:04.109Z,45.45
2022-07-28T09:04:04.035Z,45.51
2022-07-28T09:05:04.034Z,43.69
2022-07-28T09:06:04.033Z,42.02
2022-07-28T09:07:04.004Z,42.36
2022-07-28T09:08:03.994Z,40.35
2022-07-28T09:09:03.988Z,40.21
2022-07-28T09:10:03.992Z,38.90
2022-07-28T09:11:03.976Z,37.40
2022-07-28T09:12:03.945Z,37.01
2022-07-28T09:13:03.933Z,37.01
2022-07-28T09:14:03.923Z,37.32
2022-07-28T09:15:03.928Z,37.63
2022-07-28T09:16:03.998Z,38.82
2022-07-28T09:17:05.490Z,38.80
2022-07-28T09:18:03.887Z,37.46
2022-07-28T09:19:03.881Z,36.66
2022-07-28T09:20:08.833Z,35.75
2022-07-28T09:21:04.865Z,35.13
2022-07-28T09:22:03.848Z,34.84
2022-07-28T09:23:03.827Z,34.67
2022-07-28T09:24:03.837Z,36.37
2022-07-28T09:25:03.813Z,36.86
2022-07-28T09:26:08.423Z,36.18
2022-07-28T09:27:04.811Z,36.45
2022-07-28T09:28:03.779Z,36.65
2022-07-28T09:29:03.783Z,36.35
2022-07-28T09:30:03.756Z,35.85
2022-07-28T09:31:03.856Z,35.44
2022-07-28T09:32:03.837Z,35.34
2022-07-28T09:33:03.726Z,34.16
2022-07-28T09:34:03.726Z,35.85
2022-07-28T09:35:03.722Z,35.34
2022-07-28T09:36:03.707Z,34.94
2022-07-28T09:37:03.700Z,33.54
2022-07-28T09:38:03.680Z,32.66
2022-07-28T09:39:03.676Z,32.75
2022-07-28T09:40:04.108Z,32.34
2022-07-28T09:41:03.657Z,31.25
2022-07-28T09:42:03.667Z,31.43
2022-07-28T09:43:03.646Z,30.55
2022-07-28T09:44:03.628Z,31.87
2022-07-28T09:45:21.883Z,32.65
2022-07-28T09:46:04.731Z,32.53
2022-07-28T09:47:03.799Z,33.09
2022-07-28T09:48:03.802Z,32.37
2022-07-28T09:49:03.817Z,32.34
2022-07-28T09:50:03.683Z,30.68
2022-07-28T09:51:03.550Z,31.67
2022-07-28T09:52:03.593Z,32.34
2022-07-28T09:53:03.529Z,32.23
2022-07-28T09:54:03.529Z,32.50
2022-07-28T09:55:03.519Z,32.68
2022-07-28T09:56:03.508Z,31.30
2022-07-28T09:57:03.521Z,28.76
2022-07-28T09:58:03.500Z,29.04
2022-07-28T09:59:03.495Z,29.54
2022-07-28T10:00:03.462Z,30.41
2022-07-28T10:01:03.455Z,31.40
2022-07-28T10:02:03.520Z,31.10
2022-07-28T10:03:03.565Z,30.50
2022-07-28T10:04:03.430Z,29.62
2022-07-28T10:05:03.420Z,28.75
2022-07-28T10:06:03.402Z,29.80
2022-07-28T10:07:03.400Z,29.41
2022-07-28T10:08:03.414Z,31.16
2022-07-28T10:09:03.374Z,29.40
2022-07-28T10:10:03.374Z,29.30
2022-07-28T10:11:03.354Z,28.70
2022-07-28T10:12:03.357Z,28.22
2022-07-28T10:13:03.337Z,28.30
2022-07-28T10:14:03.343Z,28.50
2022-07-28T10:15:03.321Z,28.58
2022-07-28T10:16:03.396Z,29.36
2022-07-28T10:17:06.127Z,28.68
2022-07-28T10:18:03.292Z,28.87
2022-07-28T10:19:03.295Z,27.91
2022-07-28T10:20:03.275Z,27.00
2022-07-28T10:21:03.266Z,27.79
2022-07-28T10:22:03.261Z,28.49
2022-07-28T10:23:03.255Z,28.39
2022-07-28T10:24:03.232Z,28.59
2022-07-28T10:25:03.244Z,26.64
2022-07-28T10:26:03.210Z,29.11
2022-07-28T10:27:04.218Z,28.93
2022-07-28T10:28:03.198Z,29.32
2022-07-28T10:29:03.190Z,29.51
2022-07-28T10:30:03.185Z,29.11
2022-07-28T10:31:03.273Z,29.14
2022-07-28T10:32:03.164Z,29.36
2022-07-28T10:33:03.161Z,29.08
2022-07-28T10:34:03.135Z,29.65
2022-07-28T10:35:03.151Z,29.96
2022-07-28T10:36:03.129Z,30.25
2022-07-28T10:37:03.114Z,29.94
2022-07-28T10:38:03.105Z,30.35
2022-07-28T10:39:03.092Z,31.13
2022-07-28T10:40:07.776Z,30.52
2022-07-28T10:41:04.080Z,30.64
2022-07-28T10:42:03.072Z,30.26
2022-07-28T10:43:03.055Z,29.68
2022-07-28T10:44:03.052Z,31.66
2022-07-28T10:45:03.052Z,31.49
2022-07-28T10:46:08.117Z,31.99
2022-07-28T10:47:04.076Z,32.19
2022-07-28T10:48:03.016Z,31.92
2022-07-28T10:49:03.564Z,32.42
2022-07-28T10:50:03.006Z,31.84
2022-07-28T10:51:02.991Z,32.73
2022-07-28T10:52:08.754Z,31.28
2022-07-28T10:53:03.969Z,32.56
2022-07-28T10:54:02.958Z,33.09
2022-07-28T10:55:02.957Z,34.94
2022-07-28T10:56:02.931Z,33.50
2022-07-28T10:57:04.705Z,33.98
2022-07-28T10:58:11.609Z,33.50
2022-07-28T10:59:05.041Z,34.23
2022-07-28T11:00:12.854Z,34.74
2022-07-28T11:01:06.358Z,35.42
2022-07-28T11:02:03.038Z,35.54
2022-07-28T11:03:13.515Z,36.60
2022-07-28T11:04:03.858Z,36.60
2022-07-28T11:05:02.854Z,35.60
2022-07-28T11:06:02.860Z,35.50
2022-07-28T11:07:02.840Z,36.19
2022-07-28T11:08:02.841Z,34.90
2022-07-28T11:09:02.819Z,34.70
2022-07-28T11:10:02.810Z,35.00
2022-07-28T11:11:08.171Z,34.64
2022-07-28T11:12:03.781Z,35.64
2022-07-28T11:13:04.133Z,35.64
2022-07-28T11:14:02.764Z,36.74
2022-07-28T11:15:16.608Z,36.18
2022-07-28T11:16:03.757Z,36.59
2022-07-28T11:17:02.765Z,37.01
2022-07-28T11:18:02.753Z,38.22
2022-07-28T11:19:04.763Z,38.10
2022-07-28T11:20:30.858Z,37.93
2022-07-28T11:21:03.718Z,37.83
2022-07-28T11:22:02.694Z,39.40
2022-07-28T11:23:02.685Z,37.61
2022-07-28T11:24:02.670Z,36.72
2022-07-28T11:25:18.048Z,37.22
2022-07-28T11:26:03.649Z,36.63
2022-07-28T11:27:04.223Z,37.61
2022-07-28T11:28:02.636Z,37.71
2022-07-28T11:29:02.617Z,37.79
2022-07-28T11:30:02.616Z,37.97
2022-07-28T11:31:02.646Z,37.16
2022-07-28T11:32:02.610Z,36.67
2022-07-28T11:33:02.578Z,37.26
2022-07-28T11:34:02.570Z,37.74
2022-07-28T11:35:02.556Z,37.23
2022-07-28T11:36:02.558Z,36.44
2022-07-28T11:37:02.559Z,37.03
2022-07-28T11:38:02.631Z,36.13
2022-07-28T11:39:02.516Z,36.42
2022-07-28T11:40:02.511Z,36.42
2022-07-28T11:41:02.501Z,35.83
2022-07-28T11:42:02.491Z,36.22
2022-07-28T11:43:02.500Z,37.13
2022-07-28T11:44:02.470Z,36.54
2022-07-28T11:45:02.462Z,36.03
2022-07-28T11:46:02.570Z,36.52
2022-07-28T11:47:02.441Z,36.62
2022-07-28T11:48:02.429Z,36.32
2022-07-28T11:49:02.523Z,35.26
2022-07-28T11:50:02.403Z,35.74
2022-07-28T11:51:02.412Z,36.82
2022-07-28T11:52:02.395Z,35.83
2022-07-28T11:53:02.382Z,35.16
2022-07-28T11:54:02.376Z,36.34
2022-07-28T11:55:02.354Z,37.80
2022-07-28T11:56:03.247Z,36.80
2022-07-28T11:57:02.338Z,36.21
2022-07-28T11:58:02.332Z,36.29
2022-07-28T11:59:02.356Z,35.41
2022-07-28T12:00:02.349Z,34.92
2022-07-28T12:01:02.300Z,35.13
2022-07-28T12:02:02.314Z,35.82
2022-07-28T12:03:02.279Z,35.23
2022-07-28T12:04:02.284Z,35.06
2022-07-28T12:05:02.438Z,35.87
2022-07-28T12:06:02.247Z,36.46
2022-07-28T12:07:02.237Z,35.10
2022-07-28T12:08:02.217Z,36.18
2022-07-28T12:09:02.479Z,36.67
2022-07-28T12:10:02.292Z,37.55
2022-07-28T12:11:02.189Z,36.67
2022-07-28T12:12:02.184Z,36.77
2022-07-28T12:13:02.167Z,35.20
2022-07-28T12:14:02.164Z,37.24
2022-07-28T12:15:06.733Z,36.65
2022-07-28T12:16:03.133Z,36.26
2022-07-28T12:17:02.221Z,36.36
2022-07-28T12:18:02.119Z,36.36
2022-07-28T12:19:02.102Z,36.65
2022-07-28T12:20:02.109Z,37.24
2022-07-28T12:21:05.268Z,34.87
2022-07-28T12:22:02.078Z,36.07
2022-07-28T12:23:02.069Z,35.08
2022-07-28T12:24:02.049Z,35.59
2022-07-28T12:25:02.136Z,36.20
2022-07-28T12:26:02.036Z,35.63
2022-07-28T12:27:02.019Z,35.84
2022-07-28T12:28:02.254Z,36.35
2022-07-28T12:29:01.999Z,37.34
2022-07-28T12:30:02.067Z,37.34
2022-07-28T12:31:01.997Z,36.94
2022-07-28T12:36:41.194Z,38.00
2022-07-28T12:37:41.166Z,37.90
2022-07-28T12:38:41.155Z,38.00
2022-07-28T12:39:41.151Z,37.90
2022-07-28T12:40:41.146Z,38.10
2022-07-28T12:41:41.123Z,38.20
2022-07-28T12:42:41.111Z,37.80
2022-07-28T12:43:41.114Z,37.21
2022-07-28T12:44:41.090Z,38.21
2022-07-28T12:45:41.166Z,37.23
2022-07-28T12:46:41.077Z,36.44
2022-07-28T12:47:41.057Z,36.73
2022-07-28T12:48:41.083Z,36.75
2022-07-28T12:49:41.053Z,38.43
2022-07-28T12:50:41.028Z,38.82
2022-07-28T12:51:41.034Z,37.64
2022-07-28T12:52:41.007Z,37.43
2022-07-28T12:53:40.993Z,37.62
2022-07-28T12:54:40.988Z,38.31
2022-07-28T12:55:40.978Z,37.92
2022-07-28T12:56:40.983Z,37.92
2022-07-28T12:57:47.691Z,38.59
2022-07-28T12:58:41.945Z,38.61
2022-07-28T12:59:40.927Z,38.90
2022-07-28T13:00:40.996Z,39.50
2022-07-28T13:01:40.934Z,39.20
2022-07-28T13:02:41.019Z,39.50
2022-07-28T13:03:40.884Z,39.09
2022-07-28T13:04:41.566Z,39.28